Astrea — 3FOI9 — position and weather

sailwx.info

Track history (hours):
 
Tides and Currents Weather Stations Pressure Air Temp Water Temp Dewpoint Dewpoint Depression Visibility Wind Speed Wind Dir Waves Ship Positions

Astrea

Last reported at 2018-May-23 02:54 UTC. Time now 2018-May-23 03:13 UTC.
Position N 54°54' E 017°10'.

Length 105 m; draft 6.9 m.

Type: Cargo ship. MMSI: 357621000.

Date/timePositionNaut miles runAvg speedWind from/ knotsBaromVisibWave heightAir tempDewpointWater temp
2018-May-23 02:54N 54°54' E 017°10'410.8
2018-May-23 02:30N 54°55' E 017°17'1010.9
2018-May-23 01:37N 54°56' E 017°34'310.8
2018-May-23 01:22N 54°56' E 017°39'610.8
2018-May-23 00:51N 54°57' E 017°48'410.9
2018-May-23 00:26N 54°57' E 017°56'510.9
2018-May-23 00:00N 54°58' E 018°04'611.0
2018-May-22 23:30N 54°58' E 018°14'511.0
2018-May-22 23:00N 54°59' E 018°23'510.5
2018-May-22 22:30N 54°59' E 018°33'510.4
2018-May-22 22:00N 54°56' E 018°39'510.3
2018-May-22 21:30N 54°52' E 018°46'510.2
2018-May-22 21:00N 54°49' E 018°53'510.3
2018-May-22 20:30N 54°45' E 018°59'4 8.4
2018-May-22 20:00N 54°41' E 018°59'510.6
2018-May-22 19:30N 54°36' E 018°54'510.0
2018-May-22 19:00N 54°32' E 018°49'4 8.8
2018-May-22 18:30N 54°32' E 018°42'4 8.4
2018-May-22 18:01N 54°32' E 018°34'1 1.3
2018-May-22 17:29N 54°32' E 018°33'0 0.0
2018-May-22 16:59N 54°32' E 018°33'0 0.0
2018-May-22 16:29N 54°32' E 018°33'0 0.0
2018-May-22 15:59N 54°32' E 018°33'0 0.0
2018-May-22 15:29N 54°32' E 018°33'0 0.0
2018-May-22 15:00N 54°32' E 018°33'0 0.0
2018-May-22 14:29N 54°32' E 018°33'0 0.0
2018-May-22 13:59N 54°32' E 018°33'0 0.0
2018-May-22 13:29N 54°32' E 018°33'0 0.0
2018-May-22 12:59N 54°32' E 018°33'0 0.0
2018-May-22 12:29N 54°32' E 018°33'0 0.0
2018-May-22 11:59N 54°32' E 018°33'0 0.0
2018-May-22 11:29N 54°32' E 018°33'0 0.0
2018-May-22 10:59N 54°32' E 018°33'0 0.0
2018-May-22 10:29N 54°32' E 018°33'0 0.0
2018-May-22 09:57N 54°32' E 018°33'0 0.0
2018-May-22 09:29N 54°32' E 018°33'0 0.0
2018-May-22 08:59N 54°32' E 018°33'0 0.0
2018-May-22 08:26N 54°32' E 018°33'0 0.0
2018-May-22 07:59N 54°32' E 018°33'0 0.0
2018-May-22 07:29N 54°32' E 018°33'0 0.0
2018-May-22 06:59N 54°32' E 018°33'0 0.0
2018-May-22 06:29N 54°32' E 018°33'0 0.0
2018-May-22 05:56N 54°32' E 018°33'0 0.0
2018-May-22 05:30N 54°32' E 018°33'0 0.0
2018-May-22 04:59N 54°32' E 018°33'0 0.0
2018-May-22 04:29N 54°32' E 018°33'0 0.0
2018-May-22 03:59N 54°32' E 018°33'0 0.0
2018-May-22 03:29N 54°32' E 018°33'0 0.0
2018-May-22 03:00N 54°32' E 018°33'0 0.0
2018-May-22 02:29N 54°32' E 018°33'0 0.0
2018-May-22 01:59N 54°32' E 018°33'0 0.0
2018-May-22 01:29N 54°32' E 018°33'0 0.0
2018-May-22 00:59N 54°32' E 018°33'0 0.0
2018-May-22 00:30N 54°32' E 018°33'0 0.0
2018-May-21 23:59N 54°32' E 018°33'0 0.0
2018-May-21 23:29N 54°32' E 018°33'0 0.0
2018-May-21 22:59N 54°32' E 018°33'0 0.0
2018-May-21 22:29N 54°32' E 018°33'0 0.0
2018-May-21 21:59N 54°32' E 018°33'0 0.0
2018-May-21 21:29N 54°32' E 018°33'0 0.0
2018-May-21 20:59N 54°32' E 018°33'0 0.0
2018-May-21 20:29N 54°32' E 018°33'0 0.0
2018-May-21 19:59N 54°32' E 018°33'0 0.0
2018-May-21 19:30N 54°32' E 018°33'0 0.0
2018-May-21 18:56N 54°32' E 018°33'0 0.0
2018-May-21 18:29N 54°32' E 018°33'0 0.0
2018-May-21 17:56N 54°32' E 018°33'0 0.0
2018-May-21 17:29N 54°32' E 018°33'0 0.0
2018-May-21 16:59N 54°32' E 018°33'0 0.0
2018-May-21 16:29N 54°32' E 018°33'0 0.0
2018-May-21 15:59N 54°32' E 018°33'0 0.0
2018-May-21 15:29N 54°32' E 018°33'0 0.0
2018-May-21 14:59N 54°32' E 018°33'0 0.0
2018-May-21 14:29N 54°32' E 018°33'1 2.9
2018-May-21 14:00N 54°32' E 018°36'1 1.6
2018-May-21 13:29N 54°31' E 018°37'0 0.0
2018-May-21 12:59N 54°31' E 018°37'0 0.0
2018-May-21 12:29N 54°31' E 018°37'0 0.0
2018-May-21 11:59N 54°31' E 018°37'0 0.0
2018-May-21 11:29N 54°31' E 018°37'0 0.0
2018-May-21 10:59N 54°31' E 018°37'0 0.0
2018-May-21 10:29N 54°31' E 018°37'0 0.0
2018-May-21 09:59N 54°31' E 018°37'0 0.0
2018-May-21 09:29N 54°31' E 018°37'0 0.0
2018-May-21 08:59N 54°31' E 018°37'0 0.0
2018-May-21 08:29N 54°31' E 018°37'0 0.0
2018-May-21 07:29N 54°31' E 018°37'0 0.0
2018-May-21 06:59N 54°31' E 018°37'0 0.0
2018-May-21 06:29N 54°31' E 018°37'0 0.0
2018-May-21 05:59N 54°31' E 018°37'0 0.0
2018-May-21 05:29N 54°31' E 018°37'0 0.0
2018-May-21 04:59N 54°31' E 018°37'0 0.0
2018-May-21 04:29N 54°31' E 018°37'0 0.0
2018-May-21 03:59N 54°31' E 018°37'0 0.0
2018-May-21 03:29N 54°31' E 018°37'0 0.0
2018-May-21 02:59N 54°31' E 018°37'0 0.0
2018-May-21 02:29N 54°31' E 018°37'0 0.0
2018-May-21 01:59N 54°31' E 018°37'0 0.0
2018-May-21 01:29N 54°31' E 018°37'0 0.0
2018-May-21 00:59N 54°31' E 018°37'0 0.0
2018-May-21 00:29N 54°31' E 018°37'0 0.0
2018-May-20 23:59N 54°31' E 018°37'0 0.0
2018-May-20 23:29N 54°31' E 018°37'0 0.0
2018-May-20 22:59N 54°32' E 018°37'0 0.0
2018-May-20 22:29N 54°31' E 018°37'0 0.1
2018-May-20 21:59N 54°31' E 018°37'0 0.0
2018-May-20 21:29N 54°31' E 018°37'0 0.1
2018-May-20 20:59N 54°31' E 018°37'0 0.0
2018-May-20 20:29N 54°31' E 018°37'0 0.0
2018-May-20 19:59N 54°31' E 018°37'0 0.0
2018-May-20 19:29N 54°31' E 018°37'0 0.0
2018-May-20 18:59N 54°31' E 018°37'0 0.0
2018-May-20 18:29N 54°31' E 018°37'0 0.0
2018-May-20 17:59N 54°31' E 018°37'0 0.0
2018-May-20 17:29N 54°31' E 018°37'0 0.0
2018-May-20 16:59N 54°31' E 018°37'0 0.0
2018-May-20 16:29N 54°31' E 018°37'0 0.0
2018-May-20 15:59N 54°31' E 018°37'0 0.0
2018-May-20 15:29N 54°31' E 018°37'0 0.0
2018-May-20 14:59N 54°31' E 018°37'0 0.0
2018-May-20 14:29N 54°31' E 018°37'0 0.0
2018-May-20 13:59N 54°31' E 018°37'0 0.0
2018-May-20 13:29N 54°31' E 018°37'0 0.0
2018-May-20 12:59N 54°31' E 018°37'0 0.0
2018-May-20 12:29N 54°31' E 018°37'0 0.0
2018-May-20 11:59N 54°31' E 018°37'0 0.0
2018-May-20 11:29N 54°32' E 018°37'0 0.1
2018-May-20 10:56N 54°31' E 018°37'0 0.0
2018-May-20 10:29N 54°31' E 018°37'0 0.0
2018-May-20 09:59N 54°31' E 018°37'0 0.0
2018-May-20 09:29N 54°31' E 018°37'0 0.0
2018-May-20 08:59N 54°31' E 018°37'0 0.0
2018-May-20 08:29N 54°31' E 018°37'0 0.0
2018-May-20 07:59N 54°31' E 018°37'0 0.0
2018-May-20 07:29N 54°31' E 018°37'0 0.0
2018-May-20 06:59N 54°31' E 018°37'0 0.0
2018-May-20 06:29N 54°31' E 018°37'0 0.0
2018-May-20 05:59N 54°31' E 018°37'0 0.0
2018-May-20 05:29N 54°31' E 018°37'0 0.0
2018-May-20 04:59N 54°31' E 018°37'0 0.0
2018-May-20 04:29N 54°31' E 018°37'0 0.0
2018-May-20 03:59N 54°31' E 018°37'0 0.0
2018-May-20 03:29N 54°32' E 018°37'0 0.0
2018-May-20 02:59N 54°32' E 018°37'0 0.0
2018-May-20 02:29N 54°32' E 018°37'0 0.0
2018-May-20 01:59N 54°32' E 018°37'0 0.0
2018-May-20 01:29N 54°32' E 018°37'0 0.0
2018-May-20 00:59N 54°32' E 018°37'0 0.0
2018-May-20 00:29N 54°31' E 018°37'0 0.0
2018-May-19 23:59N 54°32' E 018°37'0 0.0
2018-May-19 23:29N 54°32' E 018°37'0 0.0
2018-May-19 22:59N 54°32' E 018°37'0 0.0
2018-May-19 22:29N 54°32' E 018°37'0 0.0
2018-May-19 21:59N 54°31' E 018°37'0 0.0
2018-May-19 21:29N 54°31' E 018°37'0 0.0
2018-May-19 20:59N 54°31' E 018°37'0 0.0
2018-May-19 20:29N 54°31' E 018°37'0 0.0
2018-May-19 19:59N 54°31' E 018°37'0 0.0
2018-May-19 19:29N 54°31' E 018°37'0 0.0
2018-May-19 18:59N 54°31' E 018°37'0 0.0
2018-May-19 18:29N 54°31' E 018°37'0 0.0
2018-May-19 17:59N 54°31' E 018°37'0 0.0
2018-May-19 17:29N 54°31' E 018°37'0 0.0
2018-May-19 16:59N 54°31' E 018°37'0 0.0
2018-May-19 16:29N 54°31' E 018°37'0 0.0
2018-May-19 15:59N 54°31' E 018°37'0 0.0
2018-May-19 15:29N 54°31' E 018°37'0 0.0
2018-May-19 14:59N 54°31' E 018°37'0 0.0
2018-May-19 14:29N 54°31' E 018°37'0 0.0
2018-May-19 13:59N 54°31' E 018°37'0 0.0
2018-May-19 13:29N 54°31' E 018°37'0 0.0
2018-May-19 12:59N 54°31' E 018°37'0 0.0
2018-May-19 12:29N 54°31' E 018°37'0 0.0
2018-May-19 11:59N 54°31' E 018°37'0 0.0
2018-May-19 11:29N 54°31' E 018°37'0 0.0
2018-May-19 10:59N 54°31' E 018°37'0 0.0
2018-May-19 10:29N 54°31' E 018°37'0 0.0
2018-May-19 09:59N 54°31' E 018°37'0 0.0
2018-May-19 09:29N 54°31' E 018°37'0 0.0
2018-May-19 08:59N 54°31' E 018°37'0 0.0
2018-May-19 08:29N 54°31' E 018°37'0 0.0
2018-May-19 07:59N 54°31' E 018°37'0 0.0
2018-May-19 07:29N 54°31' E 018°37'0 0.0
2018-May-19 06:59N 54°31' E 018°37'0 0.0
2018-May-19 06:29N 54°31' E 018°37'0 0.0
2018-May-19 05:59N 54°31' E 018°37'0 0.0
2018-May-19 05:29N 54°31' E 018°37'0 0.0
2018-May-19 04:59N 54°31' E 018°37'0 0.0
2018-May-19 04:29N 54°31' E 018°37'0 0.0
2018-May-19 03:59N 54°31' E 018°37'0 0.0
2018-May-19 03:29N 54°31' E 018°37'0 0.0
2018-May-19 02:59N 54°31' E 018°37'0 0.0
2018-May-19 02:29N 54°31' E 018°37'0 0.0
2018-May-19 01:59N 54°31' E 018°37'0 0.0
2018-May-19 01:29N 54°31' E 018°37'0 0.0
2018-May-19 00:59N 54°31' E 018°37'0 0.0
2018-May-19 00:29N 54°31' E 018°37'0 0.0
2018-May-18 23:59N 54°31' E 018°37'0 0.0
2018-May-18 23:29N 54°31' E 018°37'0 0.0
2018-May-18 22:59N 54°31' E 018°37'0 0.0
2018-May-18 22:29N 54°31' E 018°37'0 0.0
2018-May-18 21:59N 54°31' E 018°37'0 0.0
2018-May-18 21:29N 54°31' E 018°37'0 0.0
2018-May-18 20:59N 54°31' E 018°37'0 0.0
2018-May-18 20:29N 54°31' E 018°37'0 0.0
2018-May-18 19:59N 54°31' E 018°37'0 0.0
2018-May-18 19:29N 54°31' E 018°37'0 0.0
2018-May-18 18:59N 54°31' E 018°37'0 0.0
2018-May-18 18:29N 54°31' E 018°37'0 0.0
2018-May-18 17:59N 54°31' E 018°37'0 0.1
2018-May-18 17:29N 54°31' E 018°37'0 0.1
2018-May-18 16:59N 54°31' E 018°37'0 0.1
2018-May-18 16:29N 54°31' E 018°37'0 0.0
2018-May-18 15:59N 54°31' E 018°37'0 0.0
2018-May-18 15:29N 54°31' E 018°37'0 0.0
2018-May-18 14:59N 54°31' E 018°37'0 0.0
2018-May-18 14:29N 54°31' E 018°37'0 0.0
2018-May-18 13:59N 54°31' E 018°37'0 0.0
2018-May-18 13:29N 54°31' E 018°37'0 0.0
2018-May-18 12:59N 54°31' E 018°37'0 0.0
2018-May-18 12:29N 54°32' E 018°37'0 0.0
2018-May-18 11:59N 54°31' E 018°37'0 0.0
2018-May-18 11:29N 54°32' E 018°37'0 0.0
2018-May-18 10:59N 54°31' E 018°37'0 0.1
2018-May-18 10:29N 54°32' E 018°37'0 0.1
2018-May-18 09:59N 54°32' E 018°37'0 0.0
2018-May-18 09:29N 54°32' E 018°37'0 0.0
2018-May-18 08:59N 54°32' E 018°37'0 0.0
2018-May-18 08:29N 54°31' E 018°37'0 0.0
2018-May-18 07:59N 54°31' E 018°37'0 0.0
2018-May-18 07:29N 54°31' E 018°37'0 0.0
2018-May-18 06:59N 54°32' E 018°37'0 0.0
2018-May-18 06:29N 54°32' E 018°37'0 0.0
2018-May-18 05:59N 54°32' E 018°37'0 0.0
2018-May-18 05:29N 54°32' E 018°37'0 0.0
2018-May-18 04:59N 54°32' E 018°37'0 0.0
2018-May-18 04:29N 54°32' E 018°37'0 0.1
2018-May-18 03:59N 54°31' E 018°37'0 0.0
2018-May-18 03:29N 54°32' E 018°37'0 0.0
2018-May-18 02:59N 54°32' E 018°37'0 0.1
2018-May-18 02:29N 54°31' E 018°37'0 0.0
2018-May-18 01:59N 54°31' E 018°37'0 0.0
2018-May-18 01:29N 54°31' E 018°37'0 0.0
2018-May-18 00:59N 54°31' E 018°37'0 0.0
2018-May-18 00:29N 54°31' E 018°37'0 0.0
2018-May-17 23:59N 54°32' E 018°37'0 0.0
2018-May-17 23:29N 54°32' E 018°37'0 0.0
2018-May-17 22:56N 54°32' E 018°37'0 0.0
2018-May-17 22:29N 54°32' E 018°37'0 0.0
2018-May-17 21:59N 54°32' E 018°37'0 0.0
2018-May-17 21:29N 54°32' E 018°37'0 0.0
2018-May-17 20:59N 54°32' E 018°37'0 0.0
2018-May-17 20:29N 54°32' E 018°37'0 0.0
2018-May-17 19:59N 54°32' E 018°37'0 0.0
2018-May-17 19:29N 54°32' E 018°37'0 0.0
2018-May-17 18:59N 54°31' E 018°37'0 0.0
2018-May-17 18:29N 54°31' E 018°37'0 0.0
2018-May-17 17:59N 54°31' E 018°37'0 0.0
2018-May-17 17:29N 54°31' E 018°37'0 0.0
2018-May-17 16:59N 54°31' E 018°37'0 0.0
2018-May-17 16:29N 54°31' E 018°37'0 0.0
2018-May-17 15:59N 54°31' E 018°37'0 0.0
2018-May-17 15:29N 54°31' E 018°37'0 0.0
2018-May-17 14:59N 54°31' E 018°37'0 0.0
2018-May-17 14:29N 54°31' E 018°37'0 0.0
2018-May-17 13:59N 54°31' E 018°37'0 0.0
2018-May-17 13:29N 54°31' E 018°37'0 0.0
2018-May-17 12:59N 54°32' E 018°37'0 0.0
2018-May-17 12:29N 54°32' E 018°37'0 0.0
2018-May-17 11:59N 54°32' E 018°37'0 0.0
2018-May-17 11:29N 54°31' E 018°37'0 0.0
2018-May-17 10:59N 54°32' E 018°37'0 0.0
2018-May-17 10:29N 54°32' E 018°37'0 0.0
2018-May-17 09:59N 54°32' E 018°37'0 0.0
2018-May-17 09:29N 54°32' E 018°37'0 0.0
2018-May-17 08:59N 54°32' E 018°37'0 0.0
2018-May-17 08:30N 54°32' E 018°37'0 0.0
2018-May-17 07:59N 54°32' E 018°37'0 0.0
2018-May-17 07:29N 54°32' E 018°37'0 0.0
2018-May-17 06:59N 54°32' E 018°37'0 0.0
2018-May-17 06:29N 54°32' E 018°37'0 0.0
2018-May-17 05:59N 54°32' E 018°37'0 0.0
2018-May-17 05:26N 54°32' E 018°37'0 0.0
2018-May-17 04:59N 54°32' E 018°37'0 0.1
2018-May-17 04:29N 54°32' E 018°37'0 0.0
2018-May-17 03:59N 54°32' E 018°37'0 0.0
2018-May-17 03:29N 54°32' E 018°37'0 0.0
2018-May-17 02:59N 54°32' E 018°37'0 0.0
2018-May-17 02:29N 54°32' E 018°37'0 0.0
2018-May-17 01:59N 54°32' E 018°37'0 0.0
2018-May-17 01:26N 54°32' E 018°37'0 0.0
2018-May-17 00:59N 54°32' E 018°37'0 0.0
2018-May-17 00:29N 54°32' E 018°37'0 0.0
2018-May-16 23:59N 54°32' E 018°37'0 0.0
2018-May-16 23:29N 54°32' E 018°37'0 0.0
2018-May-16 22:59N 54°32' E 018°37'0 0.0
2018-May-16 22:29N 54°32' E 018°37'0 0.0
2018-May-16 21:59N 54°32' E 018°37'0 0.0
2018-May-16 21:29N 54°32' E 018°37'0 0.0
2018-May-16 20:59N 54°32' E 018°37'0 0.0
2018-May-16 20:29N 54°32' E 018°37'0 0.0
2018-May-16 19:59N 54°32' E 018°37'0 0.0
2018-May-16 19:29N 54°32' E 018°37'0 0.0
2018-May-16 18:59N 54°32' E 018°37'0 0.0
2018-May-16 18:29N 54°32' E 018°37'0 0.0
2018-May-16 17:59N 54°32' E 018°37'0 0.0
2018-May-16 17:29N 54°32' E 018°37'0 0.0
2018-May-16 16:59N 54°32' E 018°37'0 0.0
2018-May-16 16:29N 54°32' E 018°37'0 0.0
2018-May-16 15:59N 54°32' E 018°37'0 0.0
2018-May-16 15:29N 54°32' E 018°37'0 0.0
2018-May-16 14:59N 54°32' E 018°37'0 0.0
2018-May-16 14:29N 54°32' E 018°37'0 0.0
2018-May-16 14:00N 54°32' E 018°37'0 0.0
2018-May-16 13:30N 54°32' E 018°37'0 0.0
2018-May-16 13:00N 54°32' E 018°37'0 0.0
2018-May-16 12:30N 54°32' E 018°37'0 0.0
2018-May-16 12:00N 54°32' E 018°37'0 0.0
2018-May-16 11:30N 54°32' E 018°37'0 0.0
2018-May-16 11:00N 54°32' E 018°37'0 0.1
2018-May-16 10:30N 54°32' E 018°37'0 0.0
2018-May-16 10:00N 54°32' E 018°37'0 0.1
2018-May-16 09:30N 54°32' E 018°37'0 0.1
2018-May-16 08:57N 54°32' E 018°37'0 0.0
2018-May-16 08:30N 54°32' E 018°37'0 0.0
2018-May-16 08:00N 54°32' E 018°37'0 0.1
2018-May-16 07:30N 54°32' E 018°37'0 0.1
2018-May-16 07:00N 54°32' E 018°37'0 0.1
2018-May-16 06:30N 54°32' E 018°37'0 0.1
2018-May-16 06:00N 54°32' E 018°37'0 0.1
2018-May-16 05:30N 54°32' E 018°37'0 0.1
2018-May-16 05:00N 54°32' E 018°37'0 0.0
2018-May-16 04:30N 54°32' E 018°37'0 0.0
2018-May-16 04:00N 54°32' E 018°37'0 0.0
2018-May-16 03:30N 54°32' E 018°37'0 0.0
2018-May-16 03:00N 54°32' E 018°37'0 0.0
2018-May-16 02:30N 54°32' E 018°37'0 0.0
2018-May-16 02:00N 54°32' E 018°37'0 0.0
2018-May-16 01:30N 54°32' E 018°37'0 0.0
2018-May-16 01:00N 54°32' E 018°37'0 0.1
2018-May-16 00:30N 54°32' E 018°37'0 0.0
2018-May-16 00:00N 54°32' E 018°37'0 0.0
2018-May-15 23:30N 54°32' E 018°37'0 0.0
2018-May-15 23:00N 54°32' E 018°37'0 0.1
2018-May-15 22:30N 54°32' E 018°37'0 0.0
2018-May-15 22:00N 54°32' E 018°37'0 0.0
2018-May-15 21:30N 54°32' E 018°37'0 0.0
2018-May-15 21:00N 54°32' E 018°37'0 0.0
2018-May-15 20:30N 54°32' E 018°37'0 0.0
2018-May-15 20:00N 54°32' E 018°37'0 0.1
2018-May-15 19:30N 54°32' E 018°37'0 0.1
2018-May-15 19:00N 54°32' E 018°37'0 0.0
2018-May-15 18:30N 54°32' E 018°37'0 0.0
2018-May-15 18:00N 54°32' E 018°37'0 0.0
2018-May-15 17:30N 54°32' E 018°37'0 0.0
2018-May-15 17:00N 54°32' E 018°37'0 0.0
2018-May-15 16:27N 54°32' E 018°37'0 0.0
2018-May-15 16:00N 54°32' E 018°37'0 0.0
2018-May-15 15:30N 54°32' E 018°37'0 0.0
2018-May-15 15:00N 54°32' E 018°37'0 0.0
2018-May-15 14:30N 54°32' E 018°37'0 0.0
2018-May-15 14:00N 54°32' E 018°37'0 0.0
2018-May-15 13:30N 54°32' E 018°37'0 0.0
2018-May-15 13:00N 54°32' E 018°37'0 0.0
2018-May-15 12:30N 54°32' E 018°37'0 0.0
2018-May-15 12:00N 54°32' E 018°37'0 0.0
2018-May-15 11:30N 54°32' E 018°37'0 0.0
2018-May-15 11:00N 54°32' E 018°37'0 0.0
2018-May-15 10:30N 54°32' E 018°37'0 0.0
2018-May-15 10:00N 54°32' E 018°37'0 0.1
2018-May-15 09:30N 54°32' E 018°37'0 0.0
2018-May-15 09:00N 54°32' E 018°37'0 0.0
2018-May-15 08:30N 54°32' E 018°37'0 0.1
2018-May-15 08:00N 54°32' E 018°37'0 0.0
2018-May-15 07:30N 54°32' E 018°37'0 0.0
2018-May-15 07:00N 54°32' E 018°37'0 0.0
2018-May-15 06:30N 54°32' E 018°37'0 0.0
2018-May-15 05:57N 54°32' E 018°37'0 0.0
2018-May-15 05:30N 54°32' E 018°37'0 0.0
2018-May-15 05:00N 54°32' E 018°37'0 0.0
2018-May-15 04:30N 54°32' E 018°37'0 0.0
2018-May-15 04:00N 54°32' E 018°37'0 0.0
2018-May-15 03:30N 54°32' E 018°37'0 0.0
2018-May-15 03:00N 54°32' E 018°37'0 0.0
2018-May-15 02:30N 54°32' E 018°37'0 0.0
2018-May-15 02:00N 54°32' E 018°37'0 0.1
2018-May-15 01:30N 54°32' E 018°37'0 0.1
2018-May-15 01:00N 54°32' E 018°37'0 0.1
2018-May-15 00:30N 54°32' E 018°37'0 0.1
2018-May-15 00:00N 54°32' E 018°37'0 0.0
2018-May-14 23:30N 54°32' E 018°37'0 0.1
2018-May-14 23:00N 54°32' E 018°37'0 0.0
2018-May-14 22:30N 54°32' E 018°37'0 0.0
2018-May-14 22:00N 54°32' E 018°37'0 0.0
2018-May-14 21:27N 54°32' E 018°37'0 0.0
2018-May-14 21:00N 54°32' E 018°37'0 0.0
2018-May-14 20:30N 54°32' E 018°37'0 0.0
2018-May-14 20:00N 54°32' E 018°37'0 0.0
2018-May-14 19:30N 54°32' E 018°37'0 0.0
2018-May-14 19:00N 54°32' E 018°37'0 0.0
2018-May-14 18:30N 54°32' E 018°37'0 0.0
2018-May-14 18:00N 54°32' E 018°37'0 0.0
2018-May-14 17:30N 54°32' E 018°37'0 0.0
2018-May-14 17:00N 54°32' E 018°37'0 0.0
2018-May-14 16:30N 54°32' E 018°37'0 0.0
2018-May-14 16:00N 54°32' E 018°37'0 0.0
2018-May-14 15:30N 54°32' E 018°37'0 0.0
2018-May-14 15:00N 54°32' E 018°37'0 0.0
2018-May-14 14:30N 54°32' E 018°37'0 0.0
2018-May-14 14:00N 54°32' E 018°37'0 0.0
2018-May-14 13:30N 54°32' E 018°37'0 0.0
2018-May-14 13:00N 54°32' E 018°37'0 0.0
2018-May-14 12:30N 54°32' E 018°37'0 0.0
2018-May-14 12:00N 54°32' E 018°37'0 0.0
2018-May-14 11:30N 54°32' E 018°37'0 0.0
2018-May-14 11:00N 54°32' E 018°37'0 0.0
2018-May-14 10:30N 54°32' E 018°37'0 0.0
2018-May-14 10:00N 54°32' E 018°37'0 0.0
2018-May-14 09:30N 54°32' E 018°37'0 0.1
2018-May-14 09:00N 54°32' E 018°37'0 0.0
2018-May-14 08:30N 54°32' E 018°37'0 0.0
2018-May-14 08:00N 54°32' E 018°37'0 0.0
2018-May-14 07:30N 54°32' E 018°37'0 0.0
2018-May-14 07:00N 54°32' E 018°37'0 0.0
2018-May-14 06:30N 54°32' E 018°37'0 0.4
2018-May-14 06:00N 54°32' E 018°37'4 8.1
2018-May-14 05:29N 54°32' E 018°44'510.0
2018-May-14 05:00N 54°35' E 018°52'611.6
2018-May-14 04:30N 54°40' E 018°56'611.4
2018-May-14 04:00N 54°45' E 018°60'611.6
2018-May-14 03:30N 54°49' E 018°52'611.6
2018-May-14 03:00N 54°53' E 018°44'611.6
2018-May-14 02:30N 54°57' E 018°37'510.6
2018-May-14 02:00N 54°59' E 018°29'611.4
2018-May-14 01:30N 54°58' E 018°19'611.4
2018-May-14 01:00N 54°57' E 018°09'611.3
2018-May-14 00:30N 54°56' E 017°59'611.3
2018-May-13 23:59N 54°56' E 017°49'511.3
2018-May-13 23:30N 54°55' E 017°40'611.4
2018-May-13 23:00N 54°54' E 017°30'611.5
2018-May-13 22:30N 54°53' E 017°20'611.5
2018-May-13 22:00N 54°52' E 017°10'611.5
2018-May-13 21:30N 54°50' E 017°01'611.5
2018-May-13 21:00N 54°49' E 016°51'611.3
2018-May-13 20:30N 54°48' E 016°41'611.2
2018-May-13 20:00N 54°47' E 016°32'611.2
2018-May-13 19:30N 54°46' E 016°22'910.9
2018-May-13 18:39N 54°45' E 016°06'210.5
2018-May-13 18:30N 54°44' E 016°04'510.3
2018-May-13 18:00N 54°44' E 015°55'510.4
2018-May-13 17:30N 54°43' E 015°46'510.6
2018-May-13 17:00N 54°42' E 015°37'510.6
2018-May-13 16:29N 54°41' E 015°28'510.5
2018-May-13 16:00N 54°41' E 015°19'510.5
2018-May-13 15:30N 54°40' E 015°10'510.6
2018-May-13 15:00N 54°39' E 015°01'510.7
2018-May-13 14:30N 54°38' E 014°52'3410.1
2018-May-13 11:11N 54°46' E 013°55'611.2
2018-May-13 10:40N 54°49' E 013°47'211.3
2018-May-13 10:30N 54°50' E 013°44'611.5
2018-May-13 10:00N 54°53' E 013°36'611.6
2018-May-13 09:30N 54°57' E 013°28'611.3
2018-May-13 09:00N 54°60' E 013°20'611.0
2018-May-13 08:27N 55°03' E 013°11'711.0
2018-May-13 07:50N 55°06' E 012°60'410.9
2018-May-13 07:30N 55°08' E 012°55'610.7
2018-May-13 06:59N 55°10' E 012°46'510.7
2018-May-13 06:30N 55°13' E 012°38'611.1
2018-May-13 06:00N 55°18' E 012°37'611.5
2018-May-13 05:30N 55°24' E 012°39'611.8
2018-May-13 05:00N 55°30' E 012°41'510.7
2018-May-13 04:30N 55°35' E 012°42'510.3
2018-May-13 04:00N 55°40' E 012°41'611.2
2018-May-13 03:30N 55°46' E 012°42'611.2
2018-May-13 03:00N 55°51' E 012°40'  
Track history (hours):
 
Tides and Currents Weather Stations Pressure Air Temp Water Temp Dewpoint Dewpoint Depression Visibility Wind Speed Wind Dir Waves Ship Positions

Astrea

Last reported at 2018-May-23 02:54 UTC. Time now 2018-May-23 03:13 UTC.
Position N 54°54' E 017°10'.

Length 105 m; draft 6.9 m.

Type: Cargo ship. MMSI: 357621000.

Date/timePositionNaut miles runAvg speedWind from/ knotsBaromVisibWave heightAir tempDewpointWater temp
2018-May-23 02:54N 54°54' E 017°10'410.8
2018-May-23 02:30N 54°55' E 017°17'1010.9
2018-May-23 01:37N 54°56' E 017°34'310.8
2018-May-23 01:22N 54°56' E 017°39'610.8
2018-May-23 00:51N 54°57' E 017°48'410.9
2018-May-23 00:26N 54°57' E 017°56'510.9
2018-May-23 00:00N 54°58' E 018°04'611.0
2018-May-22 23:30N 54°58' E 018°14'511.0
2018-May-22 23:00N 54°59' E 018°23'510.5
2018-May-22 22:30N 54°59' E 018°33'510.4
2018-May-22 22:00N 54°56' E 018°39'510.3
2018-May-22 21:30N 54°52' E 018°46'510.2
2018-May-22 21:00N 54°49' E 018°53'510.3
2018-May-22 20:30N 54°45' E 018°59'4 8.4
2018-May-22 20:00N 54°41' E 018°59'510.6
2018-May-22 19:30N 54°36' E 018°54'510.0
2018-May-22 19:00N 54°32' E 018°49'4 8.8
2018-May-22 18:30N 54°32' E 018°42'4 8.4
2018-May-22 18:01N 54°32' E 018°34'1 1.3
2018-May-22 17:29N 54°32' E 018°33'0 0.0
2018-May-22 16:59N 54°32' E 018°33'0 0.0
2018-May-22 16:29N 54°32' E 018°33'0 0.0
2018-May-22 15:59N 54°32' E 018°33'0 0.0
2018-May-22 15:29N 54°32' E 018°33'0 0.0
2018-May-22 15:00N 54°32' E 018°33'0 0.0
2018-May-22 14:29N 54°32' E 018°33'0 0.0
2018-May-22 13:59N 54°32' E 018°33'0 0.0
2018-May-22 13:29N 54°32' E 018°33'0 0.0
2018-May-22 12:59N 54°32' E 018°33'0 0.0
2018-May-22 12:29N 54°32' E 018°33'0 0.0
2018-May-22 11:59N 54°32' E 018°33'0 0.0
2018-May-22 11:29N 54°32' E 018°33'0 0.0
2018-May-22 10:59N 54°32' E 018°33'0 0.0
2018-May-22 10:29N 54°32' E 018°33'0 0.0
2018-May-22 09:57N 54°32' E 018°33'0 0.0
2018-May-22 09:29N 54°32' E 018°33'0 0.0
2018-May-22 08:59N 54°32' E 018°33'0 0.0
2018-May-22 08:26N 54°32' E 018°33'0 0.0
2018-May-22 07:59N 54°32' E 018°33'0 0.0
2018-May-22 07:29N 54°32' E 018°33'0 0.0
2018-May-22 06:59N 54°32' E 018°33'0 0.0
2018-May-22 06:29N 54°32' E 018°33'0 0.0
2018-May-22 05:56N 54°32' E 018°33'0 0.0
2018-May-22 05:30N 54°32' E 018°33'0 0.0
2018-May-22 04:59N 54°32' E 018°33'0 0.0
2018-May-22 04:29N 54°32' E 018°33'0 0.0
2018-May-22 03:59N 54°32' E 018°33'0 0.0
2018-May-22 03:29N 54°32' E 018°33'0 0.0
2018-May-22 03:00N 54°32' E 018°33'0 0.0
2018-May-22 02:29N 54°32' E 018°33'0 0.0
2018-May-22 01:59N 54°32' E 018°33'0 0.0
2018-May-22 01:29N 54°32' E 018°33'0 0.0
2018-May-22 00:59N 54°32' E 018°33'0 0.0
2018-May-22 00:30N 54°32' E 018°33'0 0.0
2018-May-21 23:59N 54°32' E 018°33'0 0.0
2018-May-21 23:29N 54°32' E 018°33'0 0.0
2018-May-21 22:59N 54°32' E 018°33'0 0.0
2018-May-21 22:29N 54°32' E 018°33'0 0.0
2018-May-21 21:59N 54°32' E 018°33'0 0.0
2018-May-21 21:29N 54°32' E 018°33'0 0.0
2018-May-21 20:59N 54°32' E 018°33'0 0.0
2018-May-21 20:29N 54°32' E 018°33'0 0.0
2018-May-21 19:59N 54°32' E 018°33'0 0.0
2018-May-21 19:30N 54°32' E 018°33'0 0.0
2018-May-21 18:56N 54°32' E 018°33'0 0.0
2018-May-21 18:29N 54°32' E 018°33'0 0.0
2018-May-21 17:56N 54°32' E 018°33'0 0.0
2018-May-21 17:29N 54°32' E 018°33'0 0.0
2018-May-21 16:59N 54°32' E 018°33'0 0.0
2018-May-21 16:29N 54°32' E 018°33'0 0.0
2018-May-21 15:59N 54°32' E 018°33'0 0.0
2018-May-21 15:29N 54°32' E 018°33'0 0.0
2018-May-21 14:59N 54°32' E 018°33'0 0.0
2018-May-21 14:29N 54°32' E 018°33'1 2.9
2018-May-21 14:00N 54°32' E 018°36'1 1.6
2018-May-21 13:29N 54°31' E 018°37'0 0.0
2018-May-21 12:59N 54°31' E 018°37'0 0.0
2018-May-21 12:29N 54°31' E 018°37'0 0.0
2018-May-21 11:59N 54°31' E 018°37'0 0.0
2018-May-21 11:29N 54°31' E 018°37'0 0.0
2018-May-21 10:59N 54°31' E 018°37'0 0.0
2018-May-21 10:29N 54°31' E 018°37'0 0.0
2018-May-21 09:59N 54°31' E 018°37'0 0.0
2018-May-21 09:29N 54°31' E 018°37'0 0.0
2018-May-21 08:59N 54°31' E 018°37'0 0.0
2018-May-21 08:29N 54°31' E 018°37'0 0.0
2018-May-21 07:29N 54°31' E 018°37'0 0.0
2018-May-21 06:59N 54°31' E 018°37'0 0.0
2018-May-21 06:29N 54°31' E 018°37'0 0.0
2018-May-21 05:59N 54°31' E 018°37'0 0.0
2018-May-21 05:29N 54°31' E 018°37'0 0.0
2018-May-21 04:59N 54°31' E 018°37'0 0.0
2018-May-21 04:29N 54°31' E 018°37'0 0.0
2018-May-21 03:59N 54°31' E 018°37'0 0.0
2018-May-21 03:29N 54°31' E 018°37'0 0.0
2018-May-21 02:59N 54°31' E 018°37'0 0.0
2018-May-21 02:29N 54°31' E 018°37'0 0.0
2018-May-21 01:59N 54°31' E 018°37'0 0.0
2018-May-21 01:29N 54°31' E 018°37'0 0.0
2018-May-21 00:59N 54°31' E 018°37'0 0.0
2018-May-21 00:29N 54°31' E 018°37'0 0.0
2018-May-20 23:59N 54°31' E 018°37'0 0.0
2018-May-20 23:29N 54°31' E 018°37'0 0.0
2018-May-20 22:59N 54°32' E 018°37'0 0.0
2018-May-20 22:29N 54°31' E 018°37'0 0.1
2018-May-20 21:59N 54°31' E 018°37'0 0.0
2018-May-20 21:29N 54°31' E 018°37'0 0.1
2018-May-20 20:59N 54°31' E 018°37'0 0.0
2018-May-20 20:29N 54°31' E 018°37'0 0.0
2018-May-20 19:59N 54°31' E 018°37'0 0.0
2018-May-20 19:29N 54°31' E 018°37'0 0.0
2018-May-20 18:59N 54°31' E 018°37'0 0.0
2018-May-20 18:29N 54°31' E 018°37'0 0.0
2018-May-20 17:59N 54°31' E 018°37'0 0.0
2018-May-20 17:29N 54°31' E 018°37'0 0.0
2018-May-20 16:59N 54°31' E 018°37'0 0.0
2018-May-20 16:29N 54°31' E 018°37'0 0.0
2018-May-20 15:59N 54°31' E 018°37'0 0.0
2018-May-20 15:29N 54°31' E 018°37'0 0.0
2018-May-20 14:59N 54°31' E 018°37'0 0.0
2018-May-20 14:29N 54°31' E 018°37'0 0.0
2018-May-20 13:59N 54°31' E 018°37'0 0.0
2018-May-20 13:29N 54°31' E 018°37'0 0.0
2018-May-20 12:59N 54°31' E 018°37'0 0.0
2018-May-20 12:29N 54°31' E 018°37'0 0.0
2018-May-20 11:59N 54°31' E 018°37'0 0.0
2018-May-20 11:29N 54°32' E 018°37'0 0.1
2018-May-20 10:56N 54°31' E 018°37'0 0.0
2018-May-20 10:29N 54°31' E 018°37'0 0.0
2018-May-20 09:59N 54°31' E 018°37'0 0.0
2018-May-20 09:29N 54°31' E 018°37'0 0.0
2018-May-20 08:59N 54°31' E 018°37'0 0.0
2018-May-20 08:29N 54°31' E 018°37'0 0.0
2018-May-20 07:59N 54°31' E 018°37'0 0.0
2018-May-20 07:29N 54°31' E 018°37'0 0.0
2018-May-20 06:59N 54°31' E 018°37'0 0.0
2018-May-20 06:29N 54°31' E 018°37'0 0.0
2018-May-20 05:59N 54°31' E 018°37'0 0.0
2018-May-20 05:29N 54°31' E 018°37'0 0.0
2018-May-20 04:59N 54°31' E 018°37'0 0.0
2018-May-20 04:29N 54°31' E 018°37'0 0.0
2018-May-20 03:59N 54°31' E 018°37'0 0.0
2018-May-20 03:29N 54°32' E 018°37'0 0.0
2018-May-20 02:59N 54°32' E 018°37'0 0.0
2018-May-20 02:29N 54°32' E 018°37'0 0.0
2018-May-20 01:59N 54°32' E 018°37'0 0.0
2018-May-20 01:29N 54°32' E 018°37'0 0.0
2018-May-20 00:59N 54°32' E 018°37'0 0.0
2018-May-20 00:29N 54°31' E 018°37'0 0.0
2018-May-19 23:59N 54°32' E 018°37'0 0.0
2018-May-19 23:29N 54°32' E 018°37'0 0.0
2018-May-19 22:59N 54°32' E 018°37'0 0.0
2018-May-19 22:29N 54°32' E 018°37'0 0.0
2018-May-19 21:59N 54°31' E 018°37'0 0.0
2018-May-19 21:29N 54°31' E 018°37'0 0.0
2018-May-19 20:59N 54°31' E 018°37'0 0.0
2018-May-19 20:29N 54°31' E 018°37'0 0.0
2018-May-19 19:59N 54°31' E 018°37'0 0.0
2018-May-19 19:29N 54°31' E 018°37'0 0.0
2018-May-19 18:59N 54°31' E 018°37'0 0.0
2018-May-19 18:29N 54°31' E 018°37'0 0.0
2018-May-19 17:59N 54°31' E 018°37'0 0.0
2018-May-19 17:29N 54°31' E 018°37'0 0.0
2018-May-19 16:59N 54°31' E 018°37'0 0.0
2018-May-19 16:29N 54°31' E 018°37'0 0.0
2018-May-19 15:59N 54°31' E 018°37'0 0.0
2018-May-19 15:29N 54°31' E 018°37'0 0.0
2018-May-19 14:59N 54°31' E 018°37'0 0.0
2018-May-19 14:29N 54°31' E 018°37'0 0.0
2018-May-19 13:59N 54°31' E 018°37'0 0.0
2018-May-19 13:29N 54°31' E 018°37'0 0.0
2018-May-19 12:59N 54°31' E 018°37'0 0.0
2018-May-19 12:29N 54°31' E 018°37'0 0.0
2018-May-19 11:59N 54°31' E 018°37'0 0.0
2018-May-19 11:29N 54°31' E 018°37'0 0.0
2018-May-19 10:59N 54°31' E 018°37'0 0.0
2018-May-19 10:29N 54°31' E 018°37'0 0.0
2018-May-19 09:59N 54°31' E 018°37'0 0.0
2018-May-19 09:29N 54°31' E 018°37'0 0.0
2018-May-19 08:59N 54°31' E 018°37'0 0.0
2018-May-19 08:29N 54°31' E 018°37'0 0.0
2018-May-19 07:59N 54°31' E 018°37'0 0.0
2018-May-19 07:29N 54°31' E 018°37'0 0.0
2018-May-19 06:59N 54°31' E 018°37'0 0.0
2018-May-19 06:29N 54°31' E 018°37'0 0.0
2018-May-19 05:59N 54°31' E 018°37'0 0.0
2018-May-19 05:29N 54°31' E 018°37'0 0.0
2018-May-19 04:59N 54°31' E 018°37'0 0.0
2018-May-19 04:29N 54°31' E 018°37'0 0.0
2018-May-19 03:59N 54°31' E 018°37'0 0.0
2018-May-19 03:29N 54°31' E 018°37'0 0.0
2018-May-19 02:59N 54°31' E 018°37'0 0.0
2018-May-19 02:29N 54°31' E 018°37'0 0.0
2018-May-19 01:59N 54°31' E 018°37'0 0.0
2018-May-19 01:29N 54°31' E 018°37'0 0.0
2018-May-19 00:59N 54°31' E 018°37'0 0.0
2018-May-19 00:29N 54°31' E 018°37'0 0.0
2018-May-18 23:59N 54°31' E 018°37'0 0.0
2018-May-18 23:29N 54°31' E 018°37'0 0.0
2018-May-18 22:59N 54°31' E 018°37'0 0.0
2018-May-18 22:29N 54°31' E 018°37'0 0.0
2018-May-18 21:59N 54°31' E 018°37'0 0.0
2018-May-18 21:29N 54°31' E 018°37'0 0.0
2018-May-18 20:59N 54°31' E 018°37'0 0.0
2018-May-18 20:29N 54°31' E 018°37'0 0.0
2018-May-18 19:59N 54°31' E 018°37'0 0.0
2018-May-18 19:29N 54°31' E 018°37'0 0.0
2018-May-18 18:59N 54°31' E 018°37'0 0.0
2018-May-18 18:29N 54°31' E 018°37'0 0.0
2018-May-18 17:59N 54°31' E 018°37'0 0.1
2018-May-18 17:29N 54°31' E 018°37'0 0.1
2018-May-18 16:59N 54°31' E 018°37'0 0.1
2018-May-18 16:29N 54°31' E 018°37'0 0.0
2018-May-18 15:59N 54°31' E 018°37'0 0.0
2018-May-18 15:29N 54°31' E 018°37'0 0.0
2018-May-18 14:59N 54°31' E 018°37'0 0.0
2018-May-18 14:29N 54°31' E 018°37'0 0.0
2018-May-18 13:59N 54°31' E 018°37'0 0.0
2018-May-18 13:29N 54°31' E 018°37'0 0.0
2018-May-18 12:59N 54°31' E 018°37'0 0.0
2018-May-18 12:29N 54°32' E 018°37'0 0.0
2018-May-18 11:59N 54°31' E 018°37'0 0.0
2018-May-18 11:29N 54°32' E 018°37'0 0.0
2018-May-18 10:59N 54°31' E 018°37'0 0.1
2018-May-18 10:29N 54°32' E 018°37'0 0.1
2018-May-18 09:59N 54°32' E 018°37'0 0.0
2018-May-18 09:29N 54°32' E 018°37'0 0.0
2018-May-18 08:59N 54°32' E 018°37'0 0.0
2018-May-18 08:29N 54°31' E 018°37'0 0.0
2018-May-18 07:59N 54°31' E 018°37'0 0.0
2018-May-18 07:29N 54°31' E 018°37'0 0.0
2018-May-18 06:59N 54°32' E 018°37'0 0.0
2018-May-18 06:29N 54°32' E 018°37'0 0.0
2018-May-18 05:59N 54°32' E 018°37'0 0.0
2018-May-18 05:29N 54°32' E 018°37'0 0.0
2018-May-18 04:59N 54°32' E 018°37'0 0.0
2018-May-18 04:29N 54°32' E 018°37'0 0.1
2018-May-18 03:59N 54°31' E 018°37'0 0.0
2018-May-18 03:29N 54°32' E 018°37'0 0.0
2018-May-18 02:59N 54°32' E 018°37'0 0.1
2018-May-18 02:29N 54°31' E 018°37'0 0.0
2018-May-18 01:59N 54°31' E 018°37'0 0.0
2018-May-18 01:29N 54°31' E 018°37'0 0.0
2018-May-18 00:59N 54°31' E 018°37'0 0.0
2018-May-18 00:29N 54°31' E 018°37'0 0.0
2018-May-17 23:59N 54°32' E 018°37'0 0.0
2018-May-17 23:29N 54°32' E 018°37'0 0.0
2018-May-17 22:56N 54°32' E 018°37'0 0.0
2018-May-17 22:29N 54°32' E 018°37'0 0.0
2018-May-17 21:59N 54°32' E 018°37'0 0.0
2018-May-17 21:29N 54°32' E 018°37'0 0.0
2018-May-17 20:59N 54°32' E 018°37'0 0.0
2018-May-17 20:29N 54°32' E 018°37'0 0.0
2018-May-17 19:59N 54°32' E 018°37'0 0.0
2018-May-17 19:29N 54°32' E 018°37'0 0.0
2018-May-17 18:59N 54°31' E 018°37'0 0.0
2018-May-17 18:29N 54°31' E 018°37'0 0.0
2018-May-17 17:59N 54°31' E 018°37'0 0.0
2018-May-17 17:29N 54°31' E 018°37'0 0.0
2018-May-17 16:59N 54°31' E 018°37'0 0.0
2018-May-17 16:29N 54°31' E 018°37'0 0.0
2018-May-17 15:59N 54°31' E 018°37'0 0.0
2018-May-17 15:29N 54°31' E 018°37'0 0.0
2018-May-17 14:59N 54°31' E 018°37'0 0.0
2018-May-17 14:29N 54°31' E 018°37'0 0.0
2018-May-17 13:59N 54°31' E 018°37'0 0.0
2018-May-17 13:29N 54°31' E 018°37'0 0.0
2018-May-17 12:59N 54°32' E 018°37'0 0.0
2018-May-17 12:29N 54°32' E 018°37'0 0.0
2018-May-17 11:59N 54°32' E 018°37'0 0.0
2018-May-17 11:29N 54°31' E 018°37'0 0.0
2018-May-17 10:59N 54°32' E 018°37'0 0.0
2018-May-17 10:29N 54°32' E 018°37'0 0.0
2018-May-17 09:59N 54°32' E 018°37'0 0.0
2018-May-17 09:29N 54°32' E 018°37'0 0.0
2018-May-17 08:59N 54°32' E 018°37'0 0.0
2018-May-17 08:30N 54°32' E 018°37'0 0.0
2018-May-17 07:59N 54°32' E 018°37'0 0.0
2018-May-17 07:29N 54°32' E 018°37'0 0.0
2018-May-17 06:59N 54°32' E 018°37'0 0.0
2018-May-17 06:29N 54°32' E 018°37'0 0.0
2018-May-17 05:59N 54°32' E 018°37'0 0.0
2018-May-17 05:26N 54°32' E 018°37'0 0.0
2018-May-17 04:59N 54°32' E 018°37'0 0.1
2018-May-17 04:29N 54°32' E 018°37'0 0.0
2018-May-17 03:59N 54°32' E 018°37'0 0.0
2018-May-17 03:29N 54°32' E 018°37'0 0.0
2018-May-17 02:59N 54°32' E 018°37'0 0.0
2018-May-17 02:29N 54°32' E 018°37'0 0.0
2018-May-17 01:59N 54°32' E 018°37'0 0.0
2018-May-17 01:26N 54°32' E 018°37'0 0.0
2018-May-17 00:59N 54°32' E 018°37'0 0.0
2018-May-17 00:29N 54°32' E 018°37'0 0.0
2018-May-16 23:59N 54°32' E 018°37'0 0.0
2018-May-16 23:29N 54°32' E 018°37'0 0.0
2018-May-16 22:59N 54°32' E 018°37'0 0.0
2018-May-16 22:29N 54°32' E 018°37'0 0.0
2018-May-16 21:59N 54°32' E 018°37'0 0.0
2018-May-16 21:29N 54°32' E 018°37'0 0.0
2018-May-16 20:59N 54°32' E 018°37'0 0.0
2018-May-16 20:29N 54°32' E 018°37'0 0.0
2018-May-16 19:59N 54°32' E 018°37'0 0.0
2018-May-16 19:29N 54°32' E 018°37'0 0.0
2018-May-16 18:59N 54°32' E 018°37'0 0.0
2018-May-16 18:29N 54°32' E 018°37'0 0.0
2018-May-16 17:59N 54°32' E 018°37'0 0.0
2018-May-16 17:29N 54°32' E 018°37'0 0.0
2018-May-16 16:59N 54°32' E 018°37'0 0.0
2018-May-16 16:29N 54°32' E 018°37'0 0.0
2018-May-16 15:59N 54°32' E 018°37'0 0.0
2018-May-16 15:29N 54°32' E 018°37'0 0.0
2018-May-16 14:59N 54°32' E 018°37'0 0.0
2018-May-16 14:29N 54°32' E 018°37'0 0.0
2018-May-16 14:00N 54°32' E 018°37'0 0.0
2018-May-16 13:30N 54°32' E 018°37'0 0.0
2018-May-16 13:00N 54°32' E 018°37'0 0.0
2018-May-16 12:30N 54°32' E 018°37'0 0.0
2018-May-16 12:00N 54°32' E 018°37'0 0.0
2018-May-16 11:30N 54°32' E 018°37'0 0.0
2018-May-16 11:00N 54°32' E 018°37'0 0.1
2018-May-16 10:30N 54°32' E 018°37'0 0.0
2018-May-16 10:00N 54°32' E 018°37'0 0.1
2018-May-16 09:30N 54°32' E 018°37'0 0.1
2018-May-16 08:57N 54°32' E 018°37'0 0.0
2018-May-16 08:30N 54°32' E 018°37'0 0.0
2018-May-16 08:00N 54°32' E 018°37'0 0.1
2018-May-16 07:30N 54°32' E 018°37'0 0.1
2018-May-16 07:00N 54°32' E 018°37'0 0.1
2018-May-16 06:30N 54°32' E 018°37'0 0.1
2018-May-16 06:00N 54°32' E 018°37'0 0.1
2018-May-16 05:30N 54°32' E 018°37'0 0.1
2018-May-16 05:00N 54°32' E 018°37'0 0.0
2018-May-16 04:30N 54°32' E 018°37'0 0.0
2018-May-16 04:00N 54°32' E 018°37'0 0.0
2018-May-16 03:30N 54°32' E 018°37'0 0.0
2018-May-16 03:00N 54°32' E 018°37'0 0.0
2018-May-16 02:30N 54°32' E 018°37'0 0.0
2018-May-16 02:00N 54°32' E 018°37'0 0.0
2018-May-16 01:30N 54°32' E 018°37'0 0.0
2018-May-16 01:00N 54°32' E 018°37'0 0.1
2018-May-16 00:30N 54°32' E 018°37'0 0.0
2018-May-16 00:00N 54°32' E 018°37'0 0.0
2018-May-15 23:30N 54°32' E 018°37'0 0.0
2018-May-15 23:00N 54°32' E 018°37'0 0.1
2018-May-15 22:30N 54°32' E 018°37'0 0.0
2018-May-15 22:00N 54°32' E 018°37'0 0.0
2018-May-15 21:30N 54°32' E 018°37'0 0.0
2018-May-15 21:00N 54°32' E 018°37'0 0.0
2018-May-15 20:30N 54°32' E 018°37'0 0.0
2018-May-15 20:00N 54°32' E 018°37'0 0.1
2018-May-15 19:30N 54°32' E 018°37'0 0.1
2018-May-15 19:00N 54°32' E 018°37'0 0.0
2018-May-15 18:30N 54°32' E 018°37'0 0.0
2018-May-15 18:00N 54°32' E 018°37'0 0.0
2018-May-15 17:30N 54°32' E 018°37'0 0.0
2018-May-15 17:00N 54°32' E 018°37'0 0.0
2018-May-15 16:27N 54°32' E 018°37'0 0.0
2018-May-15 16:00N 54°32' E 018°37'0 0.0
2018-May-15 15:30N 54°32' E 018°37'0 0.0
2018-May-15 15:00N 54°32' E 018°37'0 0.0
2018-May-15 14:30N 54°32' E 018°37'0 0.0
2018-May-15 14:00N 54°32' E 018°37'0 0.0
2018-May-15 13:30N 54°32' E 018°37'0 0.0
2018-May-15 13:00N 54°32' E 018°37'0 0.0
2018-May-15 12:30N 54°32' E 018°37'0 0.0
2018-May-15 12:00N 54°32' E 018°37'0 0.0
2018-May-15 11:30N 54°32' E 018°37'0 0.0
2018-May-15 11:00N 54°32' E 018°37'0 0.0
2018-May-15 10:30N 54°32' E 018°37'0 0.0
2018-May-15 10:00N 54°32' E 018°37'0 0.1
2018-May-15 09:30N 54°32' E 018°37'0 0.0
2018-May-15 09:00N 54°32' E 018°37'0 0.0
2018-May-15 08:30N 54°32' E 018°37'0 0.1
2018-May-15 08:00N 54°32' E 018°37'0 0.0
2018-May-15 07:30N 54°32' E 018°37'0 0.0
2018-May-15 07:00N 54°32' E 018°37'0 0.0
2018-May-15 06:30N 54°32' E 018°37'0 0.0
2018-May-15 05:57N 54°32' E 018°37'0 0.0
2018-May-15 05:30N 54°32' E 018°37'0 0.0
2018-May-15 05:00N 54°32' E 018°37'0 0.0
2018-May-15 04:30N 54°32' E 018°37'0 0.0
2018-May-15 04:00N 54°32' E 018°37'0 0.0
2018-May-15 03:30N 54°32' E 018°37'0 0.0
2018-May-15 03:00N 54°32' E 018°37'0 0.0
2018-May-15 02:30N 54°32' E 018°37'0 0.0
2018-May-15 02:00N 54°32' E 018°37'0 0.1
2018-May-15 01:30N 54°32' E 018°37'0 0.1
2018-May-15 01:00N 54°32' E 018°37'0 0.1
2018-May-15 00:30N 54°32' E 018°37'0 0.1
2018-May-15 00:00N 54°32' E 018°37'0 0.0
2018-May-14 23:30N 54°32' E 018°37'0 0.1
2018-May-14 23:00N 54°32' E 018°37'0 0.0
2018-May-14 22:30N 54°32' E 018°37'0 0.0
2018-May-14 22:00N 54°32' E 018°37'0 0.0
2018-May-14 21:27N 54°32' E 018°37'0 0.0
2018-May-14 21:00N 54°32' E 018°37'0 0.0
2018-May-14 20:30N 54°32' E 018°37'0 0.0
2018-May-14 20:00N 54°32' E 018°37'0 0.0
2018-May-14 19:30N 54°32' E 018°37'0 0.0
2018-May-14 19:00N 54°32' E 018°37'0 0.0
2018-May-14 18:30N 54°32' E 018°37'0 0.0
2018-May-14 18:00N 54°32' E 018°37'0 0.0
2018-May-14 17:30N 54°32' E 018°37'0 0.0
2018-May-14 17:00N 54°32' E 018°37'0 0.0
2018-May-14 16:30N 54°32' E 018°37'0 0.0
2018-May-14 16:00N 54°32' E 018°37'0 0.0
2018-May-14 15:30N 54°32' E 018°37'0 0.0
2018-May-14 15:00N 54°32' E 018°37'0 0.0
2018-May-14 14:30N 54°32' E 018°37'0 0.0
2018-May-14 14:00N 54°32' E 018°37'0 0.0
2018-May-14 13:30N 54°32' E 018°37'0 0.0
2018-May-14 13:00N 54°32' E 018°37'0 0.0
2018-May-14 12:30N 54°32' E 018°37'0 0.0
2018-May-14 12:00N 54°32' E 018°37'0 0.0
2018-May-14 11:30N 54°32' E 018°37'0 0.0
2018-May-14 11:00N 54°32' E 018°37'0 0.0
2018-May-14 10:30N 54°32' E 018°37'0 0.0
2018-May-14 10:00N 54°32' E 018°37'0 0.0
2018-May-14 09:30N 54°32' E 018°37'0 0.1
2018-May-14 09:00N 54°32' E 018°37'0 0.0
2018-May-14 08:30N 54°32' E 018°37'0 0.0
2018-May-14 08:00N 54°32' E 018°37'0 0.0
2018-May-14 07:30N 54°32' E 018°37'0 0.0
2018-May-14 07:00N 54°32' E 018°37'0 0.0
2018-May-14 06:30N 54°32' E 018°37'0 0.4
2018-May-14 06:00N 54°32' E 018°37'4 8.1
2018-May-14 05:29N 54°32' E 018°44'510.0
2018-May-14 05:00N 54°35' E 018°52'611.6
2018-May-14 04:30N 54°40' E 018°56'611.4
2018-May-14 04:00N 54°45' E 018°60'611.6
2018-May-14 03:30N 54°49' E 018°52'611.6
2018-May-14 03:00N 54°53' E 018°44'611.6
2018-May-14 02:30N 54°57' E 018°37'510.6
2018-May-14 02:00N 54°59' E 018°29'611.4
2018-May-14 01:30N 54°58' E 018°19'611.4
2018-May-14 01:00N 54°57' E 018°09'611.3
2018-May-14 00:30N 54°56' E 017°59'611.3
2018-May-13 23:59N 54°56' E 017°49'511.3
2018-May-13 23:30N 54°55' E 017°40'611.4
2018-May-13 23:00N 54°54' E 017°30'611.5
2018-May-13 22:30N 54°53' E 017°20'611.5
2018-May-13 22:00N 54°52' E 017°10'611.5
2018-May-13 21:30N 54°50' E 017°01'611.5
2018-May-13 21:00N 54°49' E 016°51'611.3
2018-May-13 20:30N 54°48' E 016°41'611.2
2018-May-13 20:00N 54°47' E 016°32'611.2
2018-May-13 19:30N 54°46' E 016°22'910.9
2018-May-13 18:39N 54°45' E 016°06'210.5
2018-May-13 18:30N 54°44' E 016°04'510.3
2018-May-13 18:00N 54°44' E 015°55'510.4
2018-May-13 17:30N 54°43' E 015°46'510.6
2018-May-13 17:00N 54°42' E 015°37'510.6
2018-May-13 16:29N 54°41' E 015°28'510.5
2018-May-13 16:00N 54°41' E 015°19'510.5
2018-May-13 15:30N 54°40' E 015°10'510.6
2018-May-13 15:00N 54°39' E 015°01'510.7
2018-May-13 14:30N 54°38' E 014°52'3410.1
2018-May-13 11:11N 54°46' E 013°55'611.2
2018-May-13 10:40N 54°49' E 013°47'211.3
2018-May-13 10:30N 54°50' E 013°44'611.5
2018-May-13 10:00N 54°53' E 013°36'611.6
2018-May-13 09:30N 54°57' E 013°28'611.3
2018-May-13 09:00N 54°60' E 013°20'611.0
2018-May-13 08:27N 55°03' E 013°11'711.0
2018-May-13 07:50N 55°06' E 012°60'410.9
2018-May-13 07:30N 55°08' E 012°55'610.7
2018-May-13 06:59N 55°10' E 012°46'510.7
2018-May-13 06:30N 55°13' E 012°38'611.1
2018-May-13 06:00N 55°18' E 012°37'611.5
2018-May-13 05:30N 55°24' E 012°39'611.8
2018-May-13 05:00N 55°30' E 012°41'510.7
2018-May-13 04:30N 55°35' E 012°42'510.3
2018-May-13 04:00N 55°40' E 012°41'611.2
2018-May-13 03:30N 55°46' E 012°42'611.2
2018-May-13 03:00N 55°51' E 012°40'  

Dump ship's entire track history